sensor_id;sensor_type;location;lat;lon;timestamp;P1;durP1;ratioP1;P2;durP2;ratioP2
3549;SDS011;45572;48.804;8.330;2022-10-31T00:00:44;7.20;;;3.53;;
3549;SDS011;45572;48.804;8.330;2022-10-31T00:03:12;16.75;;;3.80;;
3549;SDS011;45572;48.804;8.330;2022-10-31T00:05:40;7.05;;;3.38;;
3549;SDS011;45572;48.804;8.330;2022-10-31T00:08:08;7.13;;;3.65;;
3549;SDS011;45572;48.804;8.330;2022-10-31T00:10:38;10.23;;;3.78;;
3549;SDS011;45572;48.804;8.330;2022-10-31T00:13:06;6.57;;;3.20;;
3549;SDS011;45572;48.804;8.330;2022-10-31T00:15:34;5.68;;;2.30;;
3549;SDS011;45572;48.804;8.330;2022-10-31T00:18:03;4.05;;;3.25;;
3549;SDS011;45572;48.804;8.330;2022-10-31T00:20:31;6.25;;;2.97;;
3549;SDS011;45572;48.804;8.330;2022-10-31T00:23:00;8.98;;;3.83;;
3549;SDS011;45572;48.804;8.330;2022-10-31T00:25:32;9.77;;;4.07;;
3549;SDS011;45572;48.804;8.330;2022-10-31T00:28:02;13.63;;;4.65;;
3549;SDS011;45572;48.804;8.330;2022-10-31T00:30:30;6.95;;;4.38;;
3549;SDS011;45572;48.804;8.330;2022-10-31T00:32:59;12.75;;;3.53;;
3549;SDS011;45572;48.804;8.330;2022-10-31T00:35:30;10.88;;;4.75;;
3549;SDS011;45572;48.804;8.330;2022-10-31T00:37:58;6.65;;;4.00;;
3549;SDS011;45572;48.804;8.330;2022-10-31T00:40:26;9.27;;;4.72;;
3549;SDS011;45572;48.804;8.330;2022-10-31T00:42:54;11.20;;;4.82;;
3549;SDS011;45572;48.804;8.330;2022-10-31T00:45:24;13.27;;;4.50;;
3549;SDS011;45572;48.804;8.330;2022-10-31T00:47:52;9.00;;;4.90;;
3549;SDS011;45572;48.804;8.330;2022-10-31T00:50:20;13.65;;;5.63;;
3549;SDS011;45572;48.804;8.330;2022-10-31T00:52:47;10.57;;;5.38;;
3549;SDS011;45572;48.804;8.330;2022-10-31T00:55:15;8.75;;;4.10;;
3549;SDS011;45572;48.804;8.330;2022-10-31T00:57:45;14.40;;;6.25;;
3549;SDS011;45572;48.804;8.330;2022-10-31T01:00:13;12.70;;;6.43;;
3549;SDS011;45572;48.804;8.330;2022-10-31T01:02:46;18.10;;;7.05;;
3549;SDS011;45572;48.804;8.330;2022-10-31T01:05:14;17.88;;;7.32;;
3549;SDS011;45572;48.804;8.330;2022-10-31T01:07:45;13.80;;;6.45;;
3549;SDS011;45572;48.804;8.330;2022-10-31T01:10:13;12.73;;;6.30;;
3549;SDS011;45572;48.804;8.330;2022-10-31T01:12:44;12.05;;;6.43;;
3549;SDS011;45572;48.804;8.330;2022-10-31T01:15:14;12.90;;;5.43;;
3549;SDS011;45572;48.804;8.330;2022-10-31T01:17:47;12.90;;;7.15;;
3549;SDS011;45572;48.804;8.330;2022-10-31T01:20:16;6.72;;;5.32;;
3549;SDS011;45572;48.804;8.330;2022-10-31T01:22:44;10.32;;;4.65;;
3549;SDS011;45572;48.804;8.330;2022-10-31T01:25:12;5.30;;;3.70;;
3549;SDS011;45572;48.804;8.330;2022-10-31T01:27:40;6.65;;;3.92;;
3549;SDS011;45572;48.804;8.330;2022-10-31T01:30:08;7.72;;;3.85;;
3549;SDS011;45572;48.804;8.330;2022-10-31T01:32:36;7.93;;;3.70;;
3549;SDS011;45572;48.804;8.330;2022-10-31T01:35:05;10.18;;;3.97;;
3549;SDS011;45572;48.804;8.330;2022-10-31T01:37:33;10.68;;;3.78;;
3549;SDS011;45572;48.804;8.330;2022-10-31T01:40:01;7.03;;;3.70;;
3549;SDS011;45572;48.804;8.330;2022-10-31T01:42:29;5.97;;;3.22;;
3549;SDS011;45572;48.804;8.330;2022-10-31T01:44:58;6.45;;;2.78;;
3549;SDS011;45572;48.804;8.330;2022-10-31T01:47:30;5.88;;;3.58;;
3549;SDS011;45572;48.804;8.330;2022-10-31T01:50:03;7.85;;;3.40;;
3549;SDS011;45572;48.804;8.330;2022-10-31T01:52:38;9.88;;;3.17;;
3549;SDS011;45572;48.804;8.330;2022-10-31T01:55:10;14.38;;;4.65;;
3549;SDS011;45572;48.804;8.330;2022-10-31T01:57:41;7.65;;;3.58;;
3549;SDS011;45572;48.804;8.330;2022-10-31T02:00:11;4.50;;;2.80;;
3549;SDS011;45572;48.804;8.330;2022-10-31T02:02:42;5.28;;;3.53;;
3549;SDS011;45572;48.804;8.330;2022-10-31T02:05:14;7.40;;;3.72;;
3549;SDS011;45572;48.804;8.330;2022-10-31T02:07:48;6.32;;;3.20;;
3549;SDS011;45572;48.804;8.330;2022-10-31T02:10:26;8.20;;;5.30;;
3549;SDS011;45572;48.804;8.330;2022-10-31T02:12:56;7.65;;;3.22;;
3549;SDS011;45572;48.804;8.330;2022-10-31T02:15:27;8.68;;;4.65;;
3549;SDS011;45572;48.804;8.330;2022-10-31T02:17:56;7.00;;;3.88;;
3549;SDS011;45572;48.804;8.330;2022-10-31T02:20:27;10.43;;;5.07;;
3549;SDS011;45572;48.804;8.330;2022-10-31T02:23:09;5.95;;;3.30;;
3549;SDS011;45572;48.804;8.330;2022-10-31T02:26:00;7.20;;;3.72;;
3549;SDS011;45572;48.804;8.330;2022-10-31T02:28:45;9.23;;;3.88;;
3549;SDS011;45572;48.804;8.330;2022-10-31T02:31:29;9.45;;;4.45;;
3549;SDS011;45572;48.804;8.330;2022-10-31T02:34:03;10.02;;;3.63;;
3549;SDS011;45572;48.804;8.330;2022-10-31T02:36:38;12.77;;;3.90;;
3549;SDS011;45572;48.804;8.330;2022-10-31T02:39:11;8.60;;;3.30;;
3549;SDS011;45572;48.804;8.330;2022-10-31T02:41:46;8.98;;;3.00;;
3549;SDS011;45572;48.804;8.330;2022-10-31T02:44:20;3.35;;;2.70;;
3549;SDS011;45572;48.804;8.330;2022-10-31T02:46:57;8.73;;;3.03;;
3549;SDS011;45572;48.804;8.330;2022-10-31T02:49:31;7.15;;;3.72;;
3549;SDS011;45572;48.804;8.330;2022-10-31T02:52:12;11.25;;;3.88;;
3549;SDS011;45572;48.804;8.330;2022-10-31T02:54:41;10.00;;;3.20;;
3549;SDS011;45572;48.804;8.330;2022-10-31T02:57:11;10.32;;;4.07;;
3549;SDS011;45572;48.804;8.330;2022-10-31T02:59:40;10.50;;;2.50;;
3549;SDS011;45572;48.804;8.330;2022-10-31T03:02:19;9.50;;;2.72;;
3549;SDS011;45572;48.804;8.330;2022-10-31T03:04:59;9.13;;;2.78;;
3549;SDS011;45572;48.804;8.330;2022-10-31T03:07:40;11.60;;;2.67;;
3549;SDS011;45572;48.804;8.330;2022-10-31T03:10:16;15.10;;;3.00;;
3549;SDS011;45572;48.804;8.330;2022-10-31T03:12:48;6.85;;;2.20;;
3549;SDS011;45572;48.804;8.330;2022-10-31T03:15:24;10.23;;;3.45;;
3549;SDS011;45572;48.804;8.330;2022-10-31T03:17:59;11.43;;;4.25;;
3549;SDS011;45572;48.804;8.330;2022-10-31T03:20:33;5.35;;;3.45;;
3549;SDS011;45572;48.804;8.330;2022-10-31T03:23:06;12.68;;;3.60;;
3549;SDS011;45572;48.804;8.330;2022-10-31T03:25:38;5.82;;;3.80;;
3549;SDS011;45572;48.804;8.330;2022-10-31T03:28:09;8.10;;;4.05;;
3549;SDS011;45572;48.804;8.330;2022-10-31T03:30:41;8.20;;;4.13;;
3549;SDS011;45572;48.804;8.330;2022-10-31T03:33:13;13.73;;;4.90;;
3549;SDS011;45572;48.804;8.330;2022-10-31T03:35:45;6.47;;;3.47;;
3549;SDS011;45572;48.804;8.330;2022-10-31T03:38:18;8.43;;;3.78;;
3549;SDS011;45572;48.804;8.330;2022-10-31T03:40:47;7.10;;;4.45;;
3549;SDS011;45572;48.804;8.330;2022-10-31T03:43:19;7.30;;;3.17;;
3549;SDS011;45572;48.804;8.330;2022-10-31T03:45:52;7.60;;;3.70;;
3549;SDS011;45572;48.804;8.330;2022-10-31T03:48:22;8.25;;;4.10;;
3549;SDS011;45572;48.804;8.330;2022-10-31T03:50:53;7.20;;;4.72;;
3549;SDS011;45572;48.804;8.330;2022-10-31T03:53:32;6.70;;;3.85;;
3549;SDS011;45572;48.804;8.330;2022-10-31T03:56:07;7.38;;;4.13;;
3549;SDS011;45572;48.804;8.330;2022-10-31T03:58:41;8.18;;;4.95;;
3549;SDS011;45572;48.804;8.330;2022-10-31T04:01:13;10.98;;;4.30;;
3549;SDS011;45572;48.804;8.330;2022-10-31T04:03:46;9.63;;;4.63;;
3549;SDS011;45572;48.804;8.330;2022-10-31T04:06:15;10.13;;;4.57;;
3549;SDS011;45572;48.804;8.330;2022-10-31T04:08:48;10.73;;;4.80;;
3549;SDS011;45572;48.804;8.330;2022-10-31T04:11:20;10.98;;;5.30;;
3549;SDS011;45572;48.804;8.330;2022-10-31T04:14:13;14.18;;;4.60;;
3549;SDS011;45572;48.804;8.330;2022-10-31T04:16:41;12.43;;;4.57;;
3549;SDS011;45572;48.804;8.330;2022-10-31T04:19:13;6.95;;;4.50;;
3549;SDS011;45572;48.804;8.330;2022-10-31T04:21:44;10.35;;;5.47;;
3549;SDS011;45572;48.804;8.330;2022-10-31T04:24:12;8.15;;;5.10;;
3549;SDS011;45572;48.804;8.330;2022-10-31T04:26:40;10.10;;;6.03;;
3549;SDS011;45572;48.804;8.330;2022-10-31T04:29:08;7.60;;;5.15;;
3549;SDS011;45572;48.804;8.330;2022-10-31T04:31:37;9.25;;;6.78;;
3549;SDS011;45572;48.804;8.330;2022-10-31T04:34:04;10.18;;;5.95;;
3549;SDS011;45572;48.804;8.330;2022-10-31T04:36:34;9.20;;;6.03;;
3549;SDS011;45572;48.804;8.330;2022-10-31T04:39:02;10.52;;;5.22;;
3549;SDS011;45572;48.804;8.330;2022-10-31T04:41:39;10.60;;;5.30;;
3549;SDS011;45572;48.804;8.330;2022-10-31T04:44:12;11.77;;;5.55;;
3549;SDS011;45572;48.804;8.330;2022-10-31T04:46:40;10.10;;;7.65;;
3549;SDS011;45572;48.804;8.330;2022-10-31T04:49:09;12.93;;;5.90;;
3549;SDS011;45572;48.804;8.330;2022-10-31T04:51:38;10.75;;;6.05;;
3549;SDS011;45572;48.804;8.330;2022-10-31T04:54:07;17.63;;;5.57;;
3549;SDS011;45572;48.804;8.330;2022-10-31T04:56:55;11.40;;;5.93;;
3549;SDS011;45572;48.804;8.330;2022-10-31T04:59:23;12.65;;;5.68;;
3549;SDS011;45572;48.804;8.330;2022-10-31T05:01:52;11.88;;;5.82;;
3549;SDS011;45572;48.804;8.330;2022-10-31T05:04:30;10.57;;;5.60;;
3549;SDS011;45572;48.804;8.330;2022-10-31T05:06:59;23.95;;;8.35;;
3549;SDS011;45572;48.804;8.330;2022-10-31T05:09:27;10.98;;;6.43;;
3549;SDS011;45572;48.804;8.330;2022-10-31T05:11:55;14.82;;;6.45;;
3549;SDS011;45572;48.804;8.330;2022-10-31T05:14:43;19.98;;;5.25;;
3549;SDS011;45572;48.804;8.330;2022-10-31T05:17:34;10.23;;;6.20;;
3549;SDS011;45572;48.804;8.330;2022-10-31T05:20:22;15.25;;;5.63;;
3549;SDS011;45572;48.804;8.330;2022-10-31T05:23:13;8.70;;;4.72;;
3549;SDS011;45572;48.804;8.330;2022-10-31T05:25:41;14.93;;;5.53;;
3549;SDS011;45572;48.804;8.330;2022-10-31T05:28:10;12.82;;;5.50;;
3549;SDS011;45572;48.804;8.330;2022-10-31T05:30:38;7.95;;;4.25;;
3549;SDS011;45572;48.804;8.330;2022-10-31T05:33:10;11.30;;;5.38;;
3549;SDS011;45572;48.804;8.330;2022-10-31T05:35:58;9.95;;;4.90;;
3549;SDS011;45572;48.804;8.330;2022-10-31T05:38:47;11.98;;;5.10;;
3549;SDS011;45572;48.804;8.330;2022-10-31T05:41:22;9.52;;;5.65;;
3549;SDS011;45572;48.804;8.330;2022-10-31T05:43:53;10.95;;;5.40;;
3549;SDS011;45572;48.804;8.330;2022-10-31T05:46:26;11.38;;;5.35;;
3549;SDS011;45572;48.804;8.330;2022-10-31T05:49:14;10.00;;;4.97;;
3549;SDS011;45572;48.804;8.330;2022-10-31T05:52:03;10.05;;;5.97;;
3549;SDS011;45572;48.804;8.330;2022-10-31T05:54:40;19.67;;;8.18;;
3549;SDS011;45572;48.804;8.330;2022-10-31T05:57:07;25.65;;;13.30;;
3549;SDS011;45572;48.804;8.330;2022-10-31T05:59:36;24.50;;;13.32;;
3549;SDS011;45572;48.804;8.330;2022-10-31T06:02:03;21.80;;;11.77;;
3549;SDS011;45572;48.804;8.330;2022-10-31T06:04:51;23.08;;;11.55;;
3549;SDS011;45572;48.804;8.330;2022-10-31T06:07:19;21.80;;;10.35;;
3549;SDS011;45572;48.804;8.330;2022-10-31T06:09:48;21.20;;;11.88;;
3549;SDS011;45572;48.804;8.330;2022-10-31T06:12:19;27.00;;;14.32;;
3549;SDS011;45572;48.804;8.330;2022-10-31T06:15:07;27.20;;;14.45;;
3549;SDS011;45572;48.804;8.330;2022-10-31T06:17:35;33.60;;;15.55;;
3549;SDS011;45572;48.804;8.330;2022-10-31T06:20:19;42.83;;;16.45;;
3549;SDS011;45572;48.804;8.330;2022-10-31T06:22:56;20.45;;;12.00;;
3549;SDS011;45572;48.804;8.330;2022-10-31T06:25:26;32.72;;;18.85;;
3549;SDS011;45572;48.804;8.330;2022-10-31T06:28:03;29.23;;;12.98;;
3549;SDS011;45572;48.804;8.330;2022-10-31T06:30:51;25.45;;;13.23;;
3549;SDS011;45572;48.804;8.330;2022-10-31T06:33:20;22.15;;;11.85;;
3549;SDS011;45572;48.804;8.330;2022-10-31T06:35:54;16.58;;;8.32;;
3549;SDS011;45572;48.804;8.330;2022-10-31T06:38:22;14.43;;;7.45;;
3549;SDS011;45572;48.804;8.330;2022-10-31T06:40:53;15.55;;;7.82;;
3549;SDS011;45572;48.804;8.330;2022-10-31T06:43:24;20.05;;;10.68;;
3549;SDS011;45572;48.804;8.330;2022-10-31T06:46:12;15.85;;;7.35;;
3549;SDS011;45572;48.804;8.330;2022-10-31T06:48:59;14.65;;;7.95;;
3549;SDS011;45572;48.804;8.330;2022-10-31T06:51:47;16.27;;;8.13;;
3549;SDS011;45572;48.804;8.330;2022-10-31T06:54:16;12.73;;;8.10;;
3549;SDS011;45572;48.804;8.330;2022-10-31T06:56:46;10.48;;;7.55;;
3549;SDS011;45572;48.804;8.330;2022-10-31T06:59:14;16.65;;;6.82;;
3549;SDS011;45572;48.804;8.330;2022-10-31T07:02:02;15.73;;;7.10;;
3549;SDS011;45572;48.804;8.330;2022-10-31T07:04:32;12.00;;;6.47;;
3549;SDS011;45572;48.804;8.330;2022-10-31T07:07:00;13.68;;;6.50;;
3549;SDS011;45572;48.804;8.330;2022-10-31T07:09:28;69.85;;;25.25;;
3549;SDS011;45572;48.804;8.330;2022-10-31T07:12:01;15.90;;;6.72;;
3549;SDS011;45572;48.804;8.330;2022-10-31T07:14:32;12.18;;;5.65;;
3549;SDS011;45572;48.804;8.330;2022-10-31T07:17:00;8.55;;;5.70;;
3549;SDS011;45572;48.804;8.330;2022-10-31T07:19:35;11.35;;;6.32;;
3549;SDS011;45572;48.804;8.330;2022-10-31T07:22:07;12.20;;;6.75;;
3549;SDS011;45572;48.804;8.330;2022-10-31T07:24:36;13.45;;;6.65;;
3549;SDS011;45572;48.804;8.330;2022-10-31T07:27:25;10.25;;;6.35;;
3549;SDS011;45572;48.804;8.330;2022-10-31T07:29:53;14.65;;;6.55;;
3549;SDS011;45572;48.804;8.330;2022-10-31T07:32:20;9.82;;;5.50;;
3549;SDS011;45572;48.804;8.330;2022-10-31T07:34:55;12.93;;;6.93;;
3549;SDS011;45572;48.804;8.330;2022-10-31T07:37:31;9.20;;;5.75;;
3549;SDS011;45572;48.804;8.330;2022-10-31T07:39:59;10.32;;;5.93;;
3549;SDS011;45572;48.804;8.330;2022-10-31T07:42:30;10.43;;;6.30;;
3549;SDS011;45572;48.804;8.330;2022-10-31T07:45:02;8.70;;;5.30;;
3549;SDS011;45572;48.804;8.330;2022-10-31T07:47:51;11.40;;;5.70;;
3549;SDS011;45572;48.804;8.330;2022-10-31T07:50:39;11.68;;;6.32;;
3549;SDS011;45572;48.804;8.330;2022-10-31T07:53:27;7.25;;;4.75;;
3549;SDS011;45572;48.804;8.330;2022-10-31T07:56:04;9.13;;;4.45;;
3549;SDS011;45572;48.804;8.330;2022-10-31T07:58:34;10.45;;;4.72;;
3549;SDS011;45572;48.804;8.330;2022-10-31T08:01:04;12.57;;;6.20;;
3549;SDS011;45572;48.804;8.330;2022-10-31T08:03:41;9.75;;;4.22;;
3549;SDS011;45572;48.804;8.330;2022-10-31T08:06:32;12.52;;;5.22;;
3549;SDS011;45572;48.804;8.330;2022-10-31T08:09:23;9.95;;;5.65;;
3549;SDS011;45572;48.804;8.330;2022-10-31T08:11:54;12.82;;;5.70;;
3549;SDS011;45572;48.804;8.330;2022-10-31T08:14:22;9.77;;;4.68;;
3549;SDS011;45572;48.804;8.330;2022-10-31T08:16:51;9.50;;;3.67;;
3549;SDS011;45572;48.804;8.330;2022-10-31T08:19:24;13.03;;;3.23;;
3549;SDS011;45572;48.804;8.330;2022-10-31T08:21:53;11.73;;;3.83;;
3549;SDS011;45572;48.804;8.330;2022-10-31T08:24:21;7.13;;;3.27;;
3549;SDS011;45572;48.804;8.330;2022-10-31T08:26:49;10.70;;;3.97;;
3549;SDS011;45572;48.804;8.330;2022-10-31T08:29:20;5.67;;;2.93;;
3549;SDS011;45572;48.804;8.330;2022-10-31T08:31:51;16.53;;;3.87;;
3549;SDS011;45572;48.804;8.330;2022-10-31T08:34:39;7.33;;;3.50;;
3549;SDS011;45572;48.804;8.330;2022-10-31T08:37:28;5.63;;;3.20;;
3549;SDS011;45572;48.804;8.330;2022-10-31T08:39:55;8.27;;;3.80;;
3549;SDS011;45572;48.804;8.330;2022-10-31T08:42:23;8.63;;;3.70;;
3549;SDS011;45572;48.804;8.330;2022-10-31T08:44:51;8.10;;;3.60;;
3549;SDS011;45572;48.804;8.330;2022-10-31T08:47:20;4.20;;;2.57;;
3549;SDS011;45572;48.804;8.330;2022-10-31T08:49:48;4.57;;;2.60;;
3549;SDS011;45572;48.804;8.330;2022-10-31T08:52:16;9.67;;;2.80;;
3549;SDS011;45572;48.804;8.330;2022-10-31T08:54:47;4.90;;;2.90;;
3549;SDS011;45572;48.804;8.330;2022-10-31T08:57:35;6.53;;;3.67;;
3549;SDS011;45572;48.804;8.330;2022-10-31T09:00:03;8.87;;;4.10;;
3549;SDS011;45572;48.804;8.330;2022-10-31T09:02:55;4.80;;;3.00;;
3549;SDS011;45572;48.804;8.330;2022-10-31T09:05:24;10.70;;;4.10;;
3549;SDS011;45572;48.804;8.330;2022-10-31T09:07:56;7.40;;;3.43;;
3549;SDS011;45572;48.804;8.330;2022-10-31T09:10:26;8.73;;;3.23;;
3549;SDS011;45572;48.804;8.330;2022-10-31T09:12:57;6.47;;;3.30;;
3549;SDS011;45572;48.804;8.330;2022-10-31T09:15:49;5.67;;;3.57;;
3549;SDS011;45572;48.804;8.330;2022-10-31T09:18:22;7.70;;;4.10;;
3549;SDS011;45572;48.804;8.330;2022-10-31T09:20:57;9.67;;;3.10;;
3549;SDS011;45572;48.804;8.330;2022-10-31T09:23:28;10.50;;;3.80;;
3549;SDS011;45572;48.804;8.330;2022-10-31T09:26:00;7.33;;;3.00;;
3549;SDS011;45572;48.804;8.330;2022-10-31T09:28:53;8.53;;;3.20;;
3549;SDS011;45572;48.804;8.330;2022-10-31T09:31:22;7.90;;;3.17;;
3549;SDS011;45572;48.804;8.330;2022-10-31T09:33:58;6.33;;;2.80;;
3549;SDS011;45572;48.804;8.330;2022-10-31T09:36:45;4.93;;;2.40;;
3549;SDS011;45572;48.804;8.330;2022-10-31T09:39:18;5.03;;;3.20;;
3549;SDS011;45572;48.804;8.330;2022-10-31T09:41:55;7.10;;;2.73;;
3549;SDS011;45572;48.804;8.330;2022-10-31T09:44:36;7.60;;;3.20;;
3549;SDS011;45572;48.804;8.330;2022-10-31T09:47:24;9.90;;;3.63;;
3549;SDS011;45572;48.804;8.330;2022-10-31T09:50:21;8.37;;;3.77;;
3549;SDS011;45572;48.804;8.330;2022-10-31T09:52:56;5.80;;;2.83;;
3549;SDS011;45572;48.804;8.330;2022-10-31T09:55:31;8.43;;;4.07;;
3549;SDS011;45572;48.804;8.330;2022-10-31T09:58:04;9.03;;;3.30;;
3549;SDS011;45572;48.804;8.330;2022-10-31T10:00:40;4.17;;;3.50;;
3549;SDS011;45572;48.804;8.330;2022-10-31T10:03:17;6.97;;;3.63;;
3549;SDS011;45572;48.804;8.330;2022-10-31T10:06:02;11.83;;;4.47;;
3549;SDS011;45572;48.804;8.330;2022-10-31T10:08:57;5.63;;;4.13;;
3549;SDS011;45572;48.804;8.330;2022-10-31T10:11:43;8.20;;;5.00;;
3549;SDS011;45572;48.804;8.330;2022-10-31T10:14:29;7.20;;;4.20;;
3549;SDS011;45572;48.804;8.330;2022-10-31T10:17:10;8.20;;;4.00;;
3549;SDS011;45572;48.804;8.330;2022-10-31T10:19:48;6.17;;;4.03;;
3549;SDS011;45572;48.804;8.330;2022-10-31T10:22:25;6.50;;;3.50;;
3549;SDS011;45572;48.804;8.330;2022-10-31T10:25:09;5.67;;;4.40;;
3549;SDS011;45572;48.804;8.330;2022-10-31T10:27:46;12.93;;;4.40;;
3549;SDS011;45572;48.804;8.330;2022-10-31T10:30:21;7.47;;;4.50;;
3549;SDS011;45572;48.804;8.330;2022-10-31T10:32:56;10.37;;;5.47;;
3549;SDS011;45572;48.804;8.330;2022-10-31T10:35:27;9.67;;;4.90;;
3549;SDS011;45572;48.804;8.330;2022-10-31T10:38:00;11.93;;;5.47;;
3549;SDS011;45572;48.804;8.330;2022-10-31T10:40:36;8.30;;;4.57;;
3549;SDS011;45572;48.804;8.330;2022-10-31T10:43:12;6.77;;;4.13;;
3549;SDS011;45572;48.804;8.330;2022-10-31T10:45:50;11.17;;;5.27;;
3549;SDS011;45572;48.804;8.330;2022-10-31T10:48:43;12.13;;;4.80;;
3549;SDS011;45572;48.804;8.330;2022-10-31T10:51:20;18.53;;;5.10;;
3549;SDS011;45572;48.804;8.330;2022-10-31T10:54:13;7.03;;;4.13;;
3549;SDS011;45572;48.804;8.330;2022-10-31T10:57:06;10.53;;;5.57;;
3549;SDS011;45572;48.804;8.330;2022-10-31T10:59:44;7.87;;;4.50;;
3549;SDS011;45572;48.804;8.330;2022-10-31T11:02:15;10.33;;;4.63;;
3549;SDS011;45572;48.804;8.330;2022-10-31T11:04:47;11.77;;;4.90;;
3549;SDS011;45572;48.804;8.330;2022-10-31T11:07:18;12.17;;;5.10;;
3549;SDS011;45572;48.804;8.330;2022-10-31T11:09:46;14.50;;;6.37;;
3549;SDS011;45572;48.804;8.330;2022-10-31T11:12:17;9.50;;;5.70;;
3549;SDS011;45572;48.804;8.330;2022-10-31T11:14:50;11.70;;;5.87;;
3549;SDS011;45572;48.804;8.330;2022-10-31T11:17:25;14.90;;;6.00;;
3549;SDS011;45572;48.804;8.330;2022-10-31T11:20:00;14.43;;;7.60;;
3549;SDS011;45572;48.804;8.330;2022-10-31T11:22:31;10.00;;;4.60;;
3549;SDS011;45572;48.804;8.330;2022-10-31T11:24:59;13.30;;;6.07;;
3549;SDS011;45572;48.804;8.330;2022-10-31T11:27:27;9.07;;;5.43;;
3549;SDS011;45572;48.804;8.330;2022-10-31T11:30:03;14.57;;;5.23;;
3549;SDS011;45572;48.804;8.330;2022-10-31T11:32:32;10.63;;;6.33;;
3549;SDS011;45572;48.804;8.330;2022-10-31T11:35:02;14.33;;;5.93;;
3549;SDS011;45572;48.804;8.330;2022-10-31T11:37:39;13.10;;;5.90;;
3549;SDS011;45572;48.804;8.330;2022-10-31T11:40:15;9.13;;;5.80;;
3549;SDS011;45572;48.804;8.330;2022-10-31T11:42:45;8.23;;;5.17;;
3549;SDS011;45572;48.804;8.330;2022-10-31T11:45:15;7.47;;;5.10;;
3549;SDS011;45572;48.804;8.330;2022-10-31T11:47:46;10.83;;;5.53;;
3549;SDS011;45572;48.804;8.330;2022-10-31T11:50:24;9.53;;;5.20;;
3549;SDS011;45572;48.804;8.330;2022-10-31T11:52:56;8.97;;;4.93;;
3549;SDS011;45572;48.804;8.330;2022-10-31T11:55:33;7.63;;;4.43;;
3549;SDS011;45572;48.804;8.330;2022-10-31T11:58:02;13.93;;;5.50;;
3549;SDS011;45572;48.804;8.330;2022-10-31T12:00:31;7.40;;;4.57;;
3549;SDS011;45572;48.804;8.330;2022-10-31T12:03:04;8.97;;;3.97;;
3549;SDS011;45572;48.804;8.330;2022-10-31T12:05:40;8.70;;;4.43;;
3549;SDS011;45572;48.804;8.330;2022-10-31T12:08:11;10.50;;;4.33;;
3549;SDS011;45572;48.804;8.330;2022-10-31T12:10:46;5.03;;;4.00;;
3549;SDS011;45572;48.804;8.330;2022-10-31T12:13:30;10.97;;;3.80;;
3549;SDS011;45572;48.804;8.330;2022-10-31T12:16:05;10.50;;;4.43;;
3549;SDS011;45572;48.804;8.330;2022-10-31T12:18:43;6.93;;;3.47;;
3549;SDS011;45572;48.804;8.330;2022-10-31T12:21:24;9.93;;;4.70;;
3549;SDS011;45572;48.804;8.330;2022-10-31T12:24:05;8.20;;;4.23;;
3549;SDS011;45572;48.804;8.330;2022-10-31T12:26:42;7.80;;;4.30;;
3549;SDS011;45572;48.804;8.330;2022-10-31T12:29:21;6.40;;;4.83;;
3549;SDS011;45572;48.804;8.330;2022-10-31T12:32:02;13.80;;;5.17;;
3549;SDS011;45572;48.804;8.330;2022-10-31T12:34:53;13.53;;;5.60;;
3549;SDS011;45572;48.804;8.330;2022-10-31T12:37:40;7.80;;;3.77;;
3549;SDS011;45572;48.804;8.330;2022-10-31T12:40:23;14.10;;;5.20;;
3549;SDS011;45572;48.804;8.330;2022-10-31T12:43:05;6.23;;;3.87;;
3549;SDS011;45572;48.804;8.330;2022-10-31T12:45:49;8.33;;;4.60;;
3549;SDS011;45572;48.804;8.330;2022-10-31T12:48:26;10.53;;;5.80;;
3549;SDS011;45572;48.804;8.330;2022-10-31T12:51:08;14.80;;;5.80;;
3549;SDS011;45572;48.804;8.330;2022-10-31T12:53:49;6.80;;;5.10;;
3549;SDS011;45572;48.804;8.330;2022-10-31T12:56:31;11.23;;;4.93;;
3549;SDS011;45572;48.804;8.330;2022-10-31T12:59:07;11.43;;;5.37;;
3549;SDS011;45572;48.804;8.330;2022-10-31T13:01:38;10.37;;;4.23;;
3549;SDS011;45572;48.804;8.330;2022-10-31T13:04:12;6.53;;;3.50;;
3549;SDS011;45572;48.804;8.330;2022-10-31T13:06:45;7.57;;;4.60;;
3549;SDS011;45572;48.804;8.330;2022-10-31T13:09:19;7.73;;;4.30;;
3549;SDS011;45572;48.804;8.330;2022-10-31T13:11:51;17.53;;;4.90;;
3549;SDS011;45572;48.804;8.330;2022-10-31T13:14:25;9.77;;;4.17;;
3549;SDS011;45572;48.804;8.330;2022-10-31T13:16:57;7.03;;;3.43;;
3549;SDS011;45572;48.804;8.330;2022-10-31T13:19:29;8.20;;;3.90;;
3549;SDS011;45572;48.804;8.330;2022-10-31T13:22:02;9.90;;;4.03;;
3549;SDS011;45572;48.804;8.330;2022-10-31T13:24:36;9.37;;;3.90;;
3549;SDS011;45572;48.804;8.330;2022-10-31T13:27:12;9.10;;;4.20;;
3549;SDS011;45572;48.804;8.330;2022-10-31T13:29:42;6.60;;;3.37;;
3549;SDS011;45572;48.804;8.330;2022-10-31T13:32:19;6.97;;;3.60;;
3549;SDS011;45572;48.804;8.330;2022-10-31T13:34:50;7.57;;;4.53;;
3549;SDS011;45572;48.804;8.330;2022-10-31T13:37:23;8.73;;;4.83;;
3549;SDS011;45572;48.804;8.330;2022-10-31T13:40:05;10.93;;;4.33;;
3549;SDS011;45572;48.804;8.330;2022-10-31T13:42:45;11.13;;;4.40;;
3549;SDS011;45572;48.804;8.330;2022-10-31T13:45:21;9.83;;;4.03;;
3549;SDS011;45572;48.804;8.330;2022-10-31T13:47:58;6.47;;;4.07;;
3549;SDS011;45572;48.804;8.330;2022-10-31T13:50:29;6.73;;;4.37;;
3549;SDS011;45572;48.804;8.330;2022-10-31T13:55:45;9.83;;;4.57;;
3549;SDS011;45572;48.804;8.330;2022-10-31T13:58:22;8.00;;;5.33;;
3549;SDS011;45572;48.804;8.330;2022-10-31T14:01:03;8.60;;;5.73;;
3549;SDS011;45572;48.804;8.330;2022-10-31T14:03:41;17.37;;;6.20;;
3549;SDS011;45572;48.804;8.330;2022-10-31T14:06:34;8.80;;;4.70;;
3549;SDS011;45572;48.804;8.330;2022-10-31T14:09:05;10.43;;;4.83;;
3549;SDS011;45572;48.804;8.330;2022-10-31T14:11:46;10.40;;;5.93;;
3549;SDS011;45572;48.804;8.330;2022-10-31T14:14:15;9.03;;;4.87;;
3549;SDS011;45572;48.804;8.330;2022-10-31T14:16:45;9.83;;;5.13;;
3549;SDS011;45572;48.804;8.330;2022-10-31T14:19:21;11.10;;;5.80;;
3549;SDS011;45572;48.804;8.330;2022-10-31T14:21:51;8.83;;;5.20;;
3549;SDS011;45572;48.804;8.330;2022-10-31T14:24:30;13.63;;;5.40;;
3549;SDS011;45572;48.804;8.330;2022-10-31T14:27:03;11.13;;;5.13;;
3549;SDS011;45572;48.804;8.330;2022-10-31T14:29:53;16.63;;;6.60;;
3549;SDS011;45572;48.804;8.330;2022-10-31T14:32:22;8.47;;;4.77;;
3549;SDS011;45572;48.804;8.330;2022-10-31T14:34:52;15.60;;;5.60;;
3549;SDS011;45572;48.804;8.330;2022-10-31T14:37:32;11.13;;;5.50;;
3549;SDS011;45572;48.804;8.330;2022-10-31T14:40:14;8.90;;;4.70;;
3549;SDS011;45572;48.804;8.330;2022-10-31T14:42:58;11.10;;;5.47;;
3549;SDS011;45572;48.804;8.330;2022-10-31T14:45:43;11.33;;;5.00;;
3549;SDS011;45572;48.804;8.330;2022-10-31T14:48:23;10.73;;;6.53;;
3549;SDS011;45572;48.804;8.330;2022-10-31T14:51:01;9.10;;;4.50;;
3549;SDS011;45572;48.804;8.330;2022-10-31T14:53:32;16.10;;;7.30;;
3549;SDS011;45572;48.804;8.330;2022-10-31T14:56:02;8.23;;;4.60;;
3549;SDS011;45572;48.804;8.330;2022-10-31T14:58:37;10.83;;;5.80;;
3549;SDS011;45572;48.804;8.330;2022-10-31T15:01:15;9.80;;;6.13;;
3549;SDS011;45572;48.804;8.330;2022-10-31T15:03:46;11.77;;;5.30;;
3549;SDS011;45572;48.804;8.330;2022-10-31T15:06:36;7.10;;;4.10;;
3549;SDS011;45572;48.804;8.330;2022-10-31T15:09:20;15.30;;;4.80;;
3549;SDS011;45572;48.804;8.330;2022-10-31T15:11:48;7.67;;;4.50;;
3549;SDS011;45572;48.804;8.330;2022-10-31T15:14:21;6.10;;;4.53;;
3549;SDS011;45572;48.804;8.330;2022-10-31T15:16:52;5.50;;;4.00;;
3549;SDS011;45572;48.804;8.330;2022-10-31T15:19:21;10.10;;;6.30;;
3549;SDS011;45572;48.804;8.330;2022-10-31T15:21:51;9.50;;;5.43;;
3549;SDS011;45572;48.804;8.330;2022-10-31T15:24:22;7.63;;;4.20;;
3549;SDS011;45572;48.804;8.330;2022-10-31T15:26:53;9.87;;;4.97;;
3549;SDS011;45572;48.804;8.330;2022-10-31T15:29:30;8.17;;;4.90;;
3549;SDS011;45572;48.804;8.330;2022-10-31T15:32:00;12.10;;;4.83;;
3549;SDS011;45572;48.804;8.330;2022-10-31T15:34:43;15.63;;;5.77;;
3549;SDS011;45572;48.804;8.330;2022-10-31T15:37:11;13.13;;;5.53;;
3549;SDS011;45572;48.804;8.330;2022-10-31T15:39:41;10.73;;;4.97;;